sensor_id;sensor_type;location;lat;lon;timestamp;P1;durP1;ratioP1;P2;durP2;ratioP2
20336;SDS011;10326;53.660;10.200;2024-02-26T00:00:46;6.10;;;5.60;;
20336;SDS011;10326;53.660;10.200;2024-02-26T00:03:13;5.95;;;5.45;;
20336;SDS011;10326;53.660;10.200;2024-02-26T00:05:40;6.00;;;5.50;;
20336;SDS011;10326;53.660;10.200;2024-02-26T00:08:07;6.30;;;5.80;;
20336;SDS011;10326;53.660;10.200;2024-02-26T00:10:34;6.43;;;5.93;;
20336;SDS011;10326;53.660;10.200;2024-02-26T00:13:01;6.65;;;6.15;;
20336;SDS011;10326;53.660;10.200;2024-02-26T00:15:29;6.30;;;5.72;;
20336;SDS011;10326;53.660;10.200;2024-02-26T00:17:57;7.18;;;6.57;;
20336;SDS011;10326;53.660;10.200;2024-02-26T00:20:24;7.10;;;6.50;;
20336;SDS011;10326;53.660;10.200;2024-02-26T00:22:51;6.88;;;6.38;;
20336;SDS011;10326;53.660;10.200;2024-02-26T00:25:18;9.73;;;6.45;;
20336;SDS011;10326;53.660;10.200;2024-02-26T00:27:45;6.82;;;6.22;;
20336;SDS011;10326;53.660;10.200;2024-02-26T00:30:12;6.93;;;6.32;;
20336;SDS011;10326;53.660;10.200;2024-02-26T00:32:39;7.30;;;6.70;;
20336;SDS011;10326;53.660;10.200;2024-02-26T00:35:08;7.25;;;6.55;;
20336;SDS011;10326;53.660;10.200;2024-02-26T00:37:36;7.40;;;6.70;;
20336;SDS011;10326;53.660;10.200;2024-02-26T00:40:04;6.57;;;6.07;;
20336;SDS011;10326;53.660;10.200;2024-02-26T00:42:33;7.00;;;6.07;;
20336;SDS011;10326;53.660;10.200;2024-02-26T00:45:00;7.57;;;6.32;;
20336;SDS011;10326;53.660;10.200;2024-02-26T00:47:28;6.57;;;5.97;;
20336;SDS011;10326;53.660;10.200;2024-02-26T00:49:55;6.72;;;6.03;;
20336;SDS011;10326;53.660;10.200;2024-02-26T00:52:23;5.93;;;5.43;;
20336;SDS011;10326;53.660;10.200;2024-02-26T00:54:50;5.93;;;5.43;;
20336;SDS011;10326;53.660;10.200;2024-02-26T00:57:17;7.40;;;6.70;;
20336;SDS011;10326;53.660;10.200;2024-02-26T00:59:44;6.95;;;6.25;;
20336;SDS011;10326;53.660;10.200;2024-02-26T01:02:11;7.35;;;6.55;;
20336;SDS011;10326;53.660;10.200;2024-02-26T01:04:38;8.10;;;7.20;;
20336;SDS011;10326;53.660;10.200;2024-02-26T01:07:05;6.70;;;6.18;;
20336;SDS011;10326;53.660;10.200;2024-02-26T01:09:34;7.18;;;6.43;;
20336;SDS011;10326;53.660;10.200;2024-02-26T01:12:01;7.80;;;7.10;;
20336;SDS011;10326;53.660;10.200;2024-02-26T01:14:28;7.68;;;6.97;;
20336;SDS011;10326;53.660;10.200;2024-02-26T01:16:56;7.45;;;6.85;;
20336;SDS011;10326;53.660;10.200;2024-02-26T01:19:23;6.97;;;6.20;;
20336;SDS011;10326;53.660;10.200;2024-02-26T01:21:50;7.00;;;6.40;;
20336;SDS011;10326;53.660;10.200;2024-02-26T01:24:17;7.15;;;6.55;;
20336;SDS011;10326;53.660;10.200;2024-02-26T01:26:45;7.75;;;5.85;;
20336;SDS011;10326;53.660;10.200;2024-02-26T01:29:12;7.03;;;6.43;;
20336;SDS011;10326;53.660;10.200;2024-02-26T01:31:39;8.30;;;6.30;;
20336;SDS011;10326;53.660;10.200;2024-02-26T01:34:06;7.82;;;7.05;;
20336;SDS011;10326;53.660;10.200;2024-02-26T01:36:33;7.38;;;6.60;;
20336;SDS011;10326;53.660;10.200;2024-02-26T01:39:01;7.00;;;6.30;;
20336;SDS011;10326;53.660;10.200;2024-02-26T01:41:29;8.43;;;7.07;;
20336;SDS011;10326;53.660;10.200;2024-02-26T01:43:57;8.00;;;7.20;;
20336;SDS011;10326;53.660;10.200;2024-02-26T01:46:24;7.55;;;6.85;;
20336;SDS011;10326;53.660;10.200;2024-02-26T01:48:53;7.88;;;7.07;;
20336;SDS011;10326;53.660;10.200;2024-02-26T01:51:20;7.38;;;6.68;;
20336;SDS011;10326;53.660;10.200;2024-02-26T01:53:47;7.93;;;7.13;;
20336;SDS011;10326;53.660;10.200;2024-02-26T01:56:15;7.47;;;6.72;;
20336;SDS011;10326;53.660;10.200;2024-02-26T01:58:44;10.80;;;6.93;;
20336;SDS011;10326;53.660;10.200;2024-02-26T02:01:13;7.68;;;6.97;;
20336;SDS011;10326;53.660;10.200;2024-02-26T02:03:42;7.85;;;7.15;;
20336;SDS011;10326;53.660;10.200;2024-02-26T02:06:10;8.57;;;7.70;;
20336;SDS011;10326;53.660;10.200;2024-02-26T02:08:38;8.82;;;7.35;;
20336;SDS011;10326;53.660;10.200;2024-02-26T02:11:05;6.65;;;6.05;;
20336;SDS011;10326;53.660;10.200;2024-02-26T02:13:36;7.80;;;7.07;;
20336;SDS011;10326;53.660;10.200;2024-02-26T02:16:03;9.07;;;8.18;;
20336;SDS011;10326;53.660;10.200;2024-02-26T02:18:32;9.10;;;8.20;;
20336;SDS011;10326;53.660;10.200;2024-02-26T02:21:01;8.57;;;7.78;;
20336;SDS011;10326;53.660;10.200;2024-02-26T02:23:28;8.67;;;7.87;;
20336;SDS011;10326;53.660;10.200;2024-02-26T02:25:55;7.82;;;6.93;;
20336;SDS011;10326;53.660;10.200;2024-02-26T02:28:24;7.72;;;6.93;;
20336;SDS011;10326;53.660;10.200;2024-02-26T02:30:53;9.60;;;7.03;;
20336;SDS011;10326;53.660;10.200;2024-02-26T02:33:20;7.97;;;7.22;;
20336;SDS011;10326;53.660;10.200;2024-02-26T02:35:48;8.20;;;6.95;;
20336;SDS011;10326;53.660;10.200;2024-02-26T02:38:20;8.45;;;7.53;;
20336;SDS011;10326;53.660;10.200;2024-02-26T02:40:48;8.30;;;7.45;;
20336;SDS011;10326;53.660;10.200;2024-02-26T02:43:15;9.43;;;7.95;;
20336;SDS011;10326;53.660;10.200;2024-02-26T02:45:42;8.18;;;7.38;;
20336;SDS011;10326;53.660;10.200;2024-02-26T02:48:10;8.73;;;7.93;;
20336;SDS011;10326;53.660;10.200;2024-02-26T02:50:37;8.45;;;7.65;;
20336;SDS011;10326;53.660;10.200;2024-02-26T02:53:05;9.38;;;8.48;;
20336;SDS011;10326;53.660;10.200;2024-02-26T02:55:33;8.85;;;8.05;;
20336;SDS011;10326;53.660;10.200;2024-02-26T02:58:00;9.95;;;9.05;;
20336;SDS011;10326;53.660;10.200;2024-02-26T03:00:27;9.27;;;8.48;;
20336;SDS011;10326;53.660;10.200;2024-02-26T03:02:54;9.52;;;8.73;;
20336;SDS011;10326;53.660;10.200;2024-02-26T03:05:21;8.97;;;8.27;;
20336;SDS011;10326;53.660;10.200;2024-02-26T03:07:49;8.98;;;8.18;;
20336;SDS011;10326;53.660;10.200;2024-02-26T03:10:16;9.65;;;8.85;;
20336;SDS011;10326;53.660;10.200;2024-02-26T03:12:45;9.20;;;8.40;;
20336;SDS011;10326;53.660;10.200;2024-02-26T03:15:12;9.18;;;8.38;;
20336;SDS011;10326;53.660;10.200;2024-02-26T03:17:39;9.10;;;8.30;;
20336;SDS011;10326;53.660;10.200;2024-02-26T03:20:07;9.93;;;9.03;;
20336;SDS011;10326;53.660;10.200;2024-02-26T03:22:35;8.85;;;8.05;;
20336;SDS011;10326;53.660;10.200;2024-02-26T03:25:05;9.50;;;8.70;;
20336;SDS011;10326;53.660;10.200;2024-02-26T03:27:33;8.38;;;7.68;;
20336;SDS011;10326;53.660;10.200;2024-02-26T03:30:01;8.47;;;7.70;;
20336;SDS011;10326;53.660;10.200;2024-02-26T03:32:29;8.50;;;7.80;;
20336;SDS011;10326;53.660;10.200;2024-02-26T03:34:56;8.80;;;8.00;;
20336;SDS011;10326;53.660;10.200;2024-02-26T03:37:23;8.48;;;7.70;;
20336;SDS011;10326;53.660;10.200;2024-02-26T03:39:50;8.95;;;8.15;;
20336;SDS011;10326;53.660;10.200;2024-02-26T03:42:18;8.90;;;8.10;;
20336;SDS011;10326;53.660;10.200;2024-02-26T03:44:45;7.60;;;7.00;;
20336;SDS011;10326;53.660;10.200;2024-02-26T03:47:14;8.20;;;7.40;;
20336;SDS011;10326;53.660;10.200;2024-02-26T03:49:42;8.35;;;7.55;;
20336;SDS011;10326;53.660;10.200;2024-02-26T03:52:09;8.93;;;8.07;;
20336;SDS011;10326;53.660;10.200;2024-02-26T03:54:36;8.20;;;7.50;;
20336;SDS011;10326;53.660;10.200;2024-02-26T03:57:04;9.00;;;8.13;;
20336;SDS011;10326;53.660;10.200;2024-02-26T03:59:31;7.90;;;7.17;;
20336;SDS011;10326;53.660;10.200;2024-02-26T04:01:58;8.30;;;7.60;;
20336;SDS011;10326;53.660;10.200;2024-02-26T04:04:28;8.50;;;7.80;;
20336;SDS011;10326;53.660;10.200;2024-02-26T04:06:55;8.32;;;7.53;;
20336;SDS011;10326;53.660;10.200;2024-02-26T04:09:22;8.32;;;7.60;;
20336;SDS011;10326;53.660;10.200;2024-02-26T04:11:49;8.70;;;7.90;;
20336;SDS011;10326;53.660;10.200;2024-02-26T04:14:16;8.02;;;7.32;;
20336;SDS011;10326;53.660;10.200;2024-02-26T04:16:43;8.97;;;8.10;;
20336;SDS011;10326;53.660;10.200;2024-02-26T04:19:10;8.80;;;8.07;;
20336;SDS011;10326;53.660;10.200;2024-02-26T04:21:40;9.50;;;8.63;;
20336;SDS011;10326;53.660;10.200;2024-02-26T04:24:08;9.80;;;8.87;;
20336;SDS011;10326;53.660;10.200;2024-02-26T04:26:35;10.27;;;9.23;;
20336;SDS011;10326;53.660;10.200;2024-02-26T04:29:02;9.70;;;8.80;;
20336;SDS011;10326;53.660;10.200;2024-02-26T04:31:29;10.17;;;9.27;;
20336;SDS011;10326;53.660;10.200;2024-02-26T04:33:58;9.37;;;8.57;;
20336;SDS011;10326;53.660;10.200;2024-02-26T04:36:25;9.40;;;8.40;;
20336;SDS011;10326;53.660;10.200;2024-02-26T04:38:53;9.40;;;8.50;;
20336;SDS011;10326;53.660;10.200;2024-02-26T04:41:21;9.33;;;8.53;;
20336;SDS011;10326;53.660;10.200;2024-02-26T04:43:48;9.10;;;8.30;;
20336;SDS011;10326;53.660;10.200;2024-02-26T04:46:15;9.37;;;8.40;;
20336;SDS011;10326;53.660;10.200;2024-02-26T04:48:42;9.70;;;8.80;;
20336;SDS011;10326;53.660;10.200;2024-02-26T04:51:10;9.33;;;8.43;;
20336;SDS011;10326;53.660;10.200;2024-02-26T04:53:37;10.10;;;9.10;;
20336;SDS011;10326;53.660;10.200;2024-02-26T04:56:06;9.03;;;8.13;;
20336;SDS011;10326;53.660;10.200;2024-02-26T04:58:33;9.07;;;8.27;;
20336;SDS011;10326;53.660;10.200;2024-02-26T05:01:00;9.67;;;8.77;;
20336;SDS011;10326;53.660;10.200;2024-02-26T05:03:28;9.52;;;8.63;;
20336;SDS011;10326;53.660;10.200;2024-02-26T05:05:55;9.40;;;8.40;;
20336;SDS011;10326;53.660;10.200;2024-02-26T05:08:23;9.73;;;8.73;;
20336;SDS011;10326;53.660;10.200;2024-02-26T05:10:50;9.50;;;8.60;;
20336;SDS011;10326;53.660;10.200;2024-02-26T05:13:19;9.73;;;8.83;;
20336;SDS011;10326;53.660;10.200;2024-02-26T05:15:46;9.17;;;8.27;;
20336;SDS011;10326;53.660;10.200;2024-02-26T05:18:14;9.03;;;8.23;;
20336;SDS011;10326;53.660;10.200;2024-02-26T05:20:41;9.73;;;8.20;;
20336;SDS011;10326;53.660;10.200;2024-02-26T05:23:09;10.20;;;8.87;;
20336;SDS011;10326;53.660;10.200;2024-02-26T05:25:36;9.33;;;8.37;;
20336;SDS011;10326;53.660;10.200;2024-02-26T05:28:03;9.60;;;8.70;;
20336;SDS011;10326;53.660;10.200;2024-02-26T05:30:32;9.00;;;8.20;;
20336;SDS011;10326;53.660;10.200;2024-02-26T05:32:59;9.07;;;8.27;;
20336;SDS011;10326;53.660;10.200;2024-02-26T05:35:26;9.23;;;8.43;;
20336;SDS011;10326;53.660;10.200;2024-02-26T05:37:53;9.80;;;8.87;;
20336;SDS011;10326;53.660;10.200;2024-02-26T05:40:20;10.60;;;8.80;;
20336;SDS011;10326;53.660;10.200;2024-02-26T05:42:47;9.17;;;8.27;;
20336;SDS011;10326;53.660;10.200;2024-02-26T05:45:14;9.67;;;8.70;;
20336;SDS011;10326;53.660;10.200;2024-02-26T05:47:43;9.57;;;8.73;;
20336;SDS011;10326;53.660;10.200;2024-02-26T05:50:10;9.60;;;8.70;;
20336;SDS011;10326;53.660;10.200;2024-02-26T05:52:39;8.47;;;7.67;;
20336;SDS011;10326;53.660;10.200;2024-02-26T05:55:07;9.57;;;8.63;;
20336;SDS011;10326;53.660;10.200;2024-02-26T05:57:35;9.50;;;8.70;;
20336;SDS011;10326;53.660;10.200;2024-02-26T06:00:03;12.13;;;9.43;;
20336;SDS011;10326;53.660;10.200;2024-02-26T06:02:38;10.50;;;9.47;;
20336;SDS011;10326;53.660;10.200;2024-02-26T06:05:06;30.23;;;10.03;;
20336;SDS011;10326;53.660;10.200;2024-02-26T06:07:34;24.70;;;10.10;;
20336;SDS011;10326;53.660;10.200;2024-02-26T06:10:01;18.13;;;10.43;;
20336;SDS011;10326;53.660;10.200;2024-02-26T06:12:29;18.90;;;9.60;;
20336;SDS011;10326;53.660;10.200;2024-02-26T06:14:57;30.77;;;9.67;;
20336;SDS011;10326;53.660;10.200;2024-02-26T06:17:26;13.57;;;9.60;;
20336;SDS011;10326;53.660;10.200;2024-02-26T06:19:53;11.77;;;9.70;;
20336;SDS011;10326;53.660;10.200;2024-02-26T06:22:22;18.73;;;9.30;;
20336;SDS011;10326;53.660;10.200;2024-02-26T06:24:49;15.27;;;9.17;;
20336;SDS011;10326;53.660;10.200;2024-02-26T06:27:16;25.07;;;10.00;;
20336;SDS011;10326;53.660;10.200;2024-02-26T06:29:43;21.58;;;10.57;;
20336;SDS011;10326;53.660;10.200;2024-02-26T06:32:10;17.50;;;9.63;;
20336;SDS011;10326;53.660;10.200;2024-02-26T06:34:37;19.85;;;9.80;;
20336;SDS011;10326;53.660;10.200;2024-02-26T06:37:06;20.90;;;11.33;;
20336;SDS011;10326;53.660;10.200;2024-02-26T06:39:35;19.40;;;9.97;;
20336;SDS011;10326;53.660;10.200;2024-02-26T06:42:03;16.52;;;10.77;;
20336;SDS011;10326;53.660;10.200;2024-02-26T06:44:30;15.47;;;10.20;;
20336;SDS011;10326;53.660;10.200;2024-02-26T06:46:57;32.28;;;11.63;;
20336;SDS011;10326;53.660;10.200;2024-02-26T06:49:25;24.73;;;11.23;;
20336;SDS011;10326;53.660;10.200;2024-02-26T06:51:52;34.53;;;11.43;;
20336;SDS011;10326;53.660;10.200;2024-02-26T06:54:20;24.07;;;10.53;;
20336;SDS011;10326;53.660;10.200;2024-02-26T06:56:48;20.43;;;10.27;;
20336;SDS011;10326;53.660;10.200;2024-02-26T06:59:15;20.60;;;11.10;;
20336;SDS011;10326;53.660;10.200;2024-02-26T07:01:42;15.90;;;10.60;;
20336;SDS011;10326;53.660;10.200;2024-02-26T07:04:09;18.60;;;10.30;;
20336;SDS011;10326;53.660;10.200;2024-02-26T07:06:36;28.77;;;11.30;;
20336;SDS011;10326;53.660;10.200;2024-02-26T07:09:04;26.47;;;10.90;;
20336;SDS011;10326;53.660;10.200;2024-02-26T07:11:31;27.90;;;11.57;;
20336;SDS011;10326;53.660;10.200;2024-02-26T07:13:59;22.50;;;11.37;;
20336;SDS011;10326;53.660;10.200;2024-02-26T07:16:27;18.43;;;11.47;;
20336;SDS011;10326;53.660;10.200;2024-02-26T07:18:54;22.55;;;11.48;;
20336;SDS011;10326;53.660;10.200;2024-02-26T07:21:21;20.73;;;11.23;;
20336;SDS011;10326;53.660;10.200;2024-02-26T07:23:48;19.70;;;11.23;;
20336;SDS011;10326;53.660;10.200;2024-02-26T07:26:15;24.67;;;12.60;;
20336;SDS011;10326;53.660;10.200;2024-02-26T07:28:44;46.63;;;12.90;;
20336;SDS011;10326;53.660;10.200;2024-02-26T07:31:17;40.58;;;11.60;;
20336;SDS011;10326;53.660;10.200;2024-02-26T07:33:45;39.13;;;11.73;;
20336;SDS011;10326;53.660;10.200;2024-02-26T07:36:12;36.80;;;12.10;;
20336;SDS011;10326;53.660;10.200;2024-02-26T07:38:41;46.27;;;11.97;;
20336;SDS011;10326;53.660;10.200;2024-02-26T07:41:08;36.53;;;11.27;;
20336;SDS011;10326;53.660;10.200;2024-02-26T07:43:36;28.45;;;11.63;;
20336;SDS011;10326;53.660;10.200;2024-02-26T07:46:03;30.93;;;11.63;;
20336;SDS011;10326;53.660;10.200;2024-02-26T07:48:32;31.20;;;11.43;;
20336;SDS011;10326;53.660;10.200;2024-02-26T07:50:59;22.50;;;11.82;;
20336;SDS011;10326;53.660;10.200;2024-02-26T07:53:28;22.67;;;11.53;;
20336;SDS011;10326;53.660;10.200;2024-02-26T07:55:55;20.10;;;11.40;;
20336;SDS011;10326;53.660;10.200;2024-02-26T07:58:22;23.27;;;12.48;;
20336;SDS011;10326;53.660;10.200;2024-02-26T08:00:50;31.75;;;12.40;;
20336;SDS011;10326;53.660;10.200;2024-02-26T08:03:17;25.20;;;12.65;;
20336;SDS011;10326;53.660;10.200;2024-02-26T08:05:46;23.17;;;12.00;;
20336;SDS011;10326;53.660;10.200;2024-02-26T08:08:13;19.25;;;11.95;;
20336;SDS011;10326;53.660;10.200;2024-02-26T08:10:40;18.80;;;12.00;;
20336;SDS011;10326;53.660;10.200;2024-02-26T08:13:07;21.48;;;11.60;;
20336;SDS011;10326;53.660;10.200;2024-02-26T08:15:35;24.58;;;12.45;;
20336;SDS011;10326;53.660;10.200;2024-02-26T08:18:03;14.75;;;11.43;;
20336;SDS011;10326;53.660;10.200;2024-02-26T08:20:31;19.45;;;11.98;;
20336;SDS011;10326;53.660;10.200;2024-02-26T08:23:00;21.98;;;12.43;;
20336;SDS011;10326;53.660;10.200;2024-02-26T08:25:27;22.83;;;11.73;;
20336;SDS011;10326;53.660;10.200;2024-02-26T08:27:54;19.20;;;12.13;;
20336;SDS011;10326;53.660;10.200;2024-02-26T08:30:21;33.53;;;12.32;;
20336;SDS011;10326;53.660;10.200;2024-02-26T08:32:48;20.45;;;12.30;;
20336;SDS011;10326;53.660;10.200;2024-02-26T08:35:15;20.85;;;11.82;;
20336;SDS011;10326;53.660;10.200;2024-02-26T08:37:43;18.02;;;12.55;;
20336;SDS011;10326;53.660;10.200;2024-02-26T08:40:12;20.77;;;13.52;;
20336;SDS011;10326;53.660;10.200;2024-02-26T08:42:41;23.90;;;11.95;;
20336;SDS011;10326;53.660;10.200;2024-02-26T08:45:08;21.70;;;12.18;;
20336;SDS011;10326;53.660;10.200;2024-02-26T08:47:36;16.75;;;12.07;;
20336;SDS011;10326;53.660;10.200;2024-02-26T08:50:03;16.48;;;11.30;;
20336;SDS011;10326;53.660;10.200;2024-02-26T08:52:32;16.73;;;11.35;;
20336;SDS011;10326;53.660;10.200;2024-02-26T08:54:59;13.93;;;10.98;;
20336;SDS011;10326;53.660;10.200;2024-02-26T08:57:27;16.20;;;11.63;;
20336;SDS011;10326;53.660;10.200;2024-02-26T08:59:54;18.73;;;12.68;;
20336;SDS011;10326;53.660;10.200;2024-02-26T09:02:21;15.43;;;12.63;;
20336;SDS011;10326;53.660;10.200;2024-02-26T09:04:48;16.50;;;12.45;;
20336;SDS011;10326;53.660;10.200;2024-02-26T09:07:16;15.88;;;12.82;;
20336;SDS011;10326;53.660;10.200;2024-02-26T09:09:43;16.20;;;13.02;;
20336;SDS011;10326;53.660;10.200;2024-02-26T09:12:10;18.13;;;12.50;;
20336;SDS011;10326;53.660;10.200;2024-02-26T09:14:38;19.55;;;14.05;;
20336;SDS011;10326;53.660;10.200;2024-02-26T09:17:06;20.50;;;13.02;;
20336;SDS011;10326;53.660;10.200;2024-02-26T09:19:33;16.27;;;13.15;;
20336;SDS011;10326;53.660;10.200;2024-02-26T09:22:00;15.98;;;13.85;;
20336;SDS011;10326;53.660;10.200;2024-02-26T09:24:27;16.48;;;14.25;;
20336;SDS011;10326;53.660;10.200;2024-02-26T09:26:54;18.40;;;14.15;;
20336;SDS011;10326;53.660;10.200;2024-02-26T09:29:21;18.95;;;14.88;;
20336;SDS011;10326;53.660;10.200;2024-02-26T09:31:50;17.75;;;14.00;;
20336;SDS011;10326;53.660;10.200;2024-02-26T09:34:18;18.05;;;13.98;;
20336;SDS011;10326;53.660;10.200;2024-02-26T09:36:45;17.40;;;14.73;;
20336;SDS011;10326;53.660;10.200;2024-02-26T09:39:12;18.38;;;14.82;;
20336;SDS011;10326;53.660;10.200;2024-02-26T09:41:42;18.00;;;15.10;;
20336;SDS011;10326;53.660;10.200;2024-02-26T09:44:11;18.23;;;14.98;;
20336;SDS011;10326;53.660;10.200;2024-02-26T09:46:42;18.45;;;14.80;;
20336;SDS011;10326;53.660;10.200;2024-02-26T09:49:11;18.40;;;14.98;;
20336;SDS011;10326;53.660;10.200;2024-02-26T09:51:40;19.23;;;15.93;;
20336;SDS011;10326;53.660;10.200;2024-02-26T09:54:07;19.73;;;15.77;;
20336;SDS011;10326;53.660;10.200;2024-02-26T09:56:35;20.08;;;16.00;;
20336;SDS011;10326;53.660;10.200;2024-02-26T09:59:04;21.83;;;16.75;;
20336;SDS011;10326;53.660;10.200;2024-02-26T10:01:37;20.42;;;16.63;;
20336;SDS011;10326;53.660;10.200;2024-02-26T10:04:08;21.38;;;16.92;;
20336;SDS011;10326;53.660;10.200;2024-02-26T10:06:37;19.40;;;15.73;;
20336;SDS011;10326;53.660;10.200;2024-02-26T10:09:04;20.95;;;16.65;;
20336;SDS011;10326;53.660;10.200;2024-02-26T10:11:35;21.90;;;17.42;;
20336;SDS011;10326;53.660;10.200;2024-02-26T10:14:04;21.13;;;17.17;;
20336;SDS011;10326;53.660;10.200;2024-02-26T10:16:31;21.10;;;17.10;;
20336;SDS011;10326;53.660;10.200;2024-02-26T10:18:59;20.48;;;16.45;;
20336;SDS011;10326;53.660;10.200;2024-02-26T10:21:26;20.60;;;16.45;;
20336;SDS011;10326;53.660;10.200;2024-02-26T10:23:55;20.98;;;16.83;;
20336;SDS011;10326;53.660;10.200;2024-02-26T10:26:22;21.02;;;16.25;;
20336;SDS011;10326;53.660;10.200;2024-02-26T10:28:49;18.23;;;14.63;;
20336;SDS011;10326;53.660;10.200;2024-02-26T10:31:17;21.73;;;17.38;;
20336;SDS011;10326;53.660;10.200;2024-02-26T10:33:45;19.67;;;16.13;;
20336;SDS011;10326;53.660;10.200;2024-02-26T10:36:12;20.67;;;16.30;;
20336;SDS011;10326;53.660;10.200;2024-02-26T10:38:39;19.33;;;15.55;;
20336;SDS011;10326;53.660;10.200;2024-02-26T10:41:07;20.50;;;16.55;;
20336;SDS011;10326;53.660;10.200;2024-02-26T10:43:41;19.73;;;16.17;;
20336;SDS011;10326;53.660;10.200;2024-02-26T10:46:09;18.52;;;15.38;;
20336;SDS011;10326;53.660;10.200;2024-02-26T10:48:36;16.40;;;14.23;;
20336;SDS011;10326;53.660;10.200;2024-02-26T10:51:04;18.02;;;15.27;;
20336;SDS011;10326;53.660;10.200;2024-02-26T10:53:31;18.70;;;15.25;;
20336;SDS011;10326;53.660;10.200;2024-02-26T10:56:02;19.02;;;16.38;;
20336;SDS011;10326;53.660;10.200;2024-02-26T10:58:32;18.63;;;15.82;;
20336;SDS011;10326;53.660;10.200;2024-02-26T11:01:01;18.70;;;14.88;;
20336;SDS011;10326;53.660;10.200;2024-02-26T11:03:29;18.85;;;15.90;;
20336;SDS011;10326;53.660;10.200;2024-02-26T11:06:00;18.50;;;15.45;;
20336;SDS011;10326;53.660;10.200;2024-02-26T11:08:28;19.67;;;15.45;;
20336;SDS011;10326;53.660;10.200;2024-02-26T11:10:57;18.25;;;15.93;;
20336;SDS011;10326;53.660;10.200;2024-02-26T11:13:26;17.55;;;14.95;;
20336;SDS011;10326;53.660;10.200;2024-02-26T11:15:57;18.25;;;15.55;;
20336;SDS011;10326;53.660;10.200;2024-02-26T11:18:26;17.75;;;15.05;;
20336;SDS011;10326;53.660;10.200;2024-02-26T11:20:54;17.23;;;15.13;;
20336;SDS011;10326;53.660;10.200;2024-02-26T11:23:22;17.60;;;14.98;;
20336;SDS011;10326;53.660;10.200;2024-02-26T11:25:49;18.25;;;14.82;;
20336;SDS011;10326;53.660;10.200;2024-02-26T11:28:20;16.80;;;14.75;;
20336;SDS011;10326;53.660;10.200;2024-02-26T11:30:49;15.55;;;13.65;;
20336;SDS011;10326;53.660;10.200;2024-02-26T11:33:18;16.35;;;13.48;;
20336;SDS011;10326;53.660;10.200;2024-02-26T11:35:46;16.38;;;13.25;;
20336;SDS011;10326;53.660;10.200;2024-02-26T11:38:17;15.23;;;13.05;;
20336;SDS011;10326;53.660;10.200;2024-02-26T11:40:47;16.08;;;13.65;;
20336;SDS011;10326;53.660;10.200;2024-02-26T11:43:14;16.73;;;13.52;;
20336;SDS011;10326;53.660;10.200;2024-02-26T11:45:48;16.05;;;13.57;;
20336;SDS011;10326;53.660;10.200;2024-02-26T11:48:22;15.50;;;13.00;;
20336;SDS011;10326;53.660;10.200;2024-02-26T11:50:51;17.42;;;13.40;;
20336;SDS011;10326;53.660;10.200;2024-02-26T11:53:20;15.43;;;13.43;;
20336;SDS011;10326;53.660;10.200;2024-02-26T11:55:49;16.00;;;13.50;;
20336;SDS011;10326;53.660;10.200;2024-02-26T11:58:53;14.88;;;13.20;;
20336;SDS011;10326;53.660;10.200;2024-02-26T12:01:36;16.80;;;14.82;;
20336;SDS011;10326;53.660;10.200;2024-02-26T12:04:07;18.33;;;14.90;;
20336;SDS011;10326;53.660;10.200;2024-02-26T12:06:42;16.95;;;14.00;;
20336;SDS011;10326;53.660;10.200;2024-02-26T12:09:11;17.58;;;14.70;;
20336;SDS011;10326;53.660;10.200;2024-02-26T12:11:39;19.80;;;15.60;;
20336;SDS011;10326;53.660;10.200;2024-02-26T12:14:09;16.83;;;14.15;;
20336;SDS011;10326;53.660;10.200;2024-02-26T12:16:36;18.02;;;15.25;;
20336;SDS011;10326;53.660;10.200;2024-02-26T12:19:05;17.08;;;14.60;;
20336;SDS011;10326;53.660;10.200;2024-02-26T12:21:35;15.82;;;13.73;;
20336;SDS011;10326;53.660;10.200;2024-02-26T12:24:06;16.27;;;13.65;;
20336;SDS011;10326;53.660;10.200;2024-02-26T12:26:38;15.63;;;13.70;;
20336;SDS011;10326;53.660;10.200;2024-02-26T12:29:06;15.98;;;13.50;;
20336;SDS011;10326;53.660;10.200;2024-02-26T12:31:34;15.25;;;13.27;;
20336;SDS011;10326;53.660;10.200;2024-02-26T12:34:02;16.73;;;13.27;;
20336;SDS011;10326;53.660;10.200;2024-02-26T12:36:31;15.20;;;13.32;;
20336;SDS011;10326;53.660;10.200;2024-02-26T12:39:00;14.93;;;13.32;;
20336;SDS011;10326;53.660;10.200;2024-02-26T12:41:28;17.38;;;13.32;;
20336;SDS011;10326;53.660;10.200;2024-02-26T12:43:55;14.95;;;13.10;;
20336;SDS011;10326;53.660;10.200;2024-02-26T12:46:48;15.10;;;12.88;;
20336;SDS011;10326;53.660;10.200;2024-02-26T12:49:15;15.13;;;13.10;;
20336;SDS011;10326;53.660;10.200;2024-02-26T12:51:46;14.60;;;12.98;;
20336;SDS011;10326;53.660;10.200;2024-02-26T12:54:14;16.35;;;14.00;;
20336;SDS011;10326;53.660;10.200;2024-02-26T12:56:41;15.82;;;12.82;;
20336;SDS011;10326;53.660;10.200;2024-02-26T12:59:08;17.08;;;14.48;;
20336;SDS011;10326;53.660;10.200;2024-02-26T13:01:36;14.98;;;12.57;;
20336;SDS011;10326;53.660;10.200;2024-02-26T13:04:03;15.98;;;13.73;;
20336;SDS011;10326;53.660;10.200;2024-02-26T13:06:31;15.88;;;13.82;;
20336;SDS011;10326;53.660;10.200;2024-02-26T13:09:01;16.00;;;13.30;;
20336;SDS011;10326;53.660;10.200;2024-02-26T13:11:29;14.85;;;12.63;;
20336;SDS011;10326;53.660;10.200;2024-02-26T13:13:56;16.60;;;13.80;;
20336;SDS011;10326;53.660;10.200;2024-02-26T13:16:24;14.82;;;12.65;;
20336;SDS011;10326;53.660;10.200;2024-02-26T13:18:51;15.95;;;13.15;;
20336;SDS011;10326;53.660;10.200;2024-02-26T13:21:18;15.23;;;13.63;;
20336;SDS011;10326;53.660;10.200;2024-02-26T13:23:48;16.65;;;13.70;;
20336;SDS011;10326;53.660;10.200;2024-02-26T13:26:21;15.82;;;13.00;;
20336;SDS011;10326;53.660;10.200;2024-02-26T13:28:58;15.70;;;13.00;;
20336;SDS011;10326;53.660;10.200;2024-02-26T13:31:26;16.58;;;13.98;;
20336;SDS011;10326;53.660;10.200;2024-02-26T13:33:54;16.73;;;13.48;;
20336;SDS011;10326;53.660;10.200;2024-02-26T13:36:21;16.45;;;13.40;;
20336;SDS011;10326;53.660;10.200;2024-02-26T13:38:51;18.67;;;13.68;;
20336;SDS011;10326;53.660;10.200;2024-02-26T13:41:21;16.17;;;13.85;;
20336;SDS011;10326;53.660;10.200;2024-02-26T13:43:48;14.75;;;13.20;;
20336;SDS011;10326;53.660;10.200;2024-02-26T13:46:17;16.38;;;14.05;;
20336;SDS011;10326;53.660;10.200;2024-02-26T13:48:44;15.07;;;13.43;;
20336;SDS011;10326;53.660;10.200;2024-02-26T13:51:11;16.20;;;13.80;;
20336;SDS011;10326;53.660;10.200;2024-02-26T13:53:39;16.50;;;13.60;;
20336;SDS011;10326;53.660;10.200;2024-02-26T13:56:06;14.95;;;13.40;;
20336;SDS011;10326;53.660;10.200;2024-02-26T13:58:35;15.80;;;13.43;;
20336;SDS011;10326;53.660;10.200;2024-02-26T14:01:02;15.80;;;14.02;;
20336;SDS011;10326;53.660;10.200;2024-02-26T14:03:30;16.73;;;13.82;;
20336;SDS011;10326;53.660;10.200;2024-02-26T14:05:57;14.98;;;13.38;;
20336;SDS011;10326;53.660;10.200;2024-02-26T14:08:24;14.75;;;13.18;;
20336;SDS011;10326;53.660;10.200;2024-02-26T14:10:51;14.27;;;12.88;;
20336;SDS011;10326;53.660;10.200;2024-02-26T14:13:18;14.07;;;12.57;;
20336;SDS011;10326;53.660;10.200;2024-02-26T14:15:47;13.77;;;12.38;;
20336;SDS011;10326;53.660;10.200;2024-02-26T14:18:14;14.07;;;12.63;;
20336;SDS011;10326;53.660;10.200;2024-02-26T14:20:41;14.38;;;12.88;;
20336;SDS011;10326;53.660;10.200;2024-02-26T14:23:09;14.45;;;12.95;;